Portada
METAR-TAF:

METAR-TAF

Aeroports :

Txengdu, Xina

latitud: 30-40N, longitud: 104-01E, altitud: 508 m

Observació

L'informe es va fer fa 47 minuts, a les 00:00 UTC
Vent 4 kt del Nord, variant entre Nord-Oest i Nord-Est
Temperatura 14°C
Humitat 100%
Pressió 1021 hPa
Visibilitat: 5000 m
Escasses núvols a una alçada de 1000 ft
Cel ennuvolat a una alçada de 2000 ft
boirina

METAR: ZUUU 200000Z 01002MPS 320V040 5000 BR FEW010 BKN020 14/14 Q1021 NOSIG

Hora: 08:47 (00:47 UTC)

Pronòstic

L'informe es va fer fa 4 hores i 46 minuts, a les 20:01 UTC
Pronòstic vàlid del 20 a les 00 UTC al 20 a les 24 UTC
Vent 6 kt del Nord/Nord-Est
Visibilitat: 3500 m
Escasses núvols a una alçada de 1000 ft
Núvols disperses a una alçada de 3000 ft
boirina

TAF: ZUUU 192001Z 2000/2024 02003MPS 3500 BR FEW010 SCT030 TX18/2007Z TN14/2023Z

Observacions i pronòstics meteorològics de més de 4000 aeroports (METAR i TAF).

Les estacions disponibles són els punts grocs i vermells al mapa.

Posi el ratolí al punt desitjat per veure el nom de l'estació.

Feu clic per veure les observacions i els pronòstics meteorològics.

Per canviar el mapa: feu clic els botons verds amb una creu de color negre per apropar; al botó verd amb un guió per allunyar la imatge; o en les fletxes verdes per a mapes adjacents.


METAR-TAF: